Terminal Aerodrome Forecast
Issued by NWS

Home | Current Version | Previous Version | Text Only | Print | Product List | Glossary On
Versions: 1 2 3 4 5 6 7 8 9 10 11 12 13 14 15 16 17 18
000
FTUS41 KGYX 282326
TAFHIE
TAF
KHIE 282326Z 2900/2924 27005KT P6SM BKN040
      TEMPO 2906/2910 -SHSN
     FM291500 28009KT P6SM SCT040=

USA.gov is the U.S. government's official web portal to all federal, state and local government web resources and services.